createdAt,value
2022-11-03T00:03:19.332Z,1.25
2022-11-03T00:08:21.170Z,3.58
2022-11-03T00:13:23.008Z,2.33
2022-11-03T00:18:24.931Z,4.53
2022-11-03T00:23:28.897Z,6.93
2022-11-03T00:28:32.599Z,0.90
2022-11-03T00:33:35.085Z,1.35
2022-11-03T00:38:37.798Z,2.70
2022-11-03T00:43:40.383Z,1.27
2022-11-03T00:48:42.704Z,3.08
2022-11-03T00:53:51.187Z,6.30
2022-11-03T00:58:54.323Z,1.23
2022-11-03T01:04:16.453Z,2.88
2022-11-03T01:09:19.742Z,0.98
2022-11-03T01:14:21.721Z,1.13
2022-11-03T01:19:25.362Z,2.47
2022-11-03T01:24:27.312Z,1.65
2022-11-03T01:29:29.212Z,3.80
2022-11-03T01:34:31.968Z,1.38
2022-11-03T01:39:34.222Z,2.15
2022-11-03T01:44:39.825Z,1.67
2022-11-03T01:49:45.456Z,7.47
2022-11-03T01:54:52.979Z,0.93
2022-11-03T01:59:58.604Z,3.50
2022-11-03T02:05:03.365Z,1.65
2022-11-03T02:10:06.430Z,3.60
2022-11-03T02:15:10.677Z,0.60
2022-11-03T02:20:22.716Z,3.08
2022-11-03T02:25:47.876Z,4.95
2022-11-03T02:31:16.220Z,3.30
2022-11-03T02:36:33.346Z,1.58
2022-11-03T02:41:38.225Z,3.83
2022-11-03T02:46:42.887Z,3.55
2022-11-03T02:51:44.846Z,1.58
2022-11-03T02:56:54.087Z,3.10
2022-11-03T03:02:07.018Z,4.28
2022-11-03T03:07:32.469Z,1.73
2022-11-03T03:12:38.023Z,1.20
2022-11-03T03:17:52.610Z,3.50
2022-11-03T03:23:15.853Z,2.45
2022-11-03T03:28:24.893Z,1.67
2022-11-03T03:38:44.133Z,6.15
2022-11-03T03:43:46.726Z,5.57
2022-11-03T03:48:49.220Z,3.08
2022-11-03T03:53:53.270Z,3.08
2022-11-03T03:58:55.091Z,1.45
2022-11-03T04:03:57.281Z,1.70
2022-11-03T04:08:59.084Z,1.95
2022-11-03T04:14:19.480Z,3.00
2022-11-03T04:19:39.724Z,2.70
2022-11-03T04:24:41.702Z,4.40
2022-11-03T04:29:43.565Z,4.70
2022-11-03T04:34:47.411Z,4.35
2022-11-03T04:39:49.302Z,4.95
2022-11-03T04:44:51.248Z,4.28
2022-11-03T04:49:53.171Z,3.80
2022-11-03T04:54:55.008Z,8.32
2022-11-03T04:59:57.085Z,9.98
2022-11-03T05:04:59.524Z,3.00
2022-11-03T05:10:02.849Z,3.78
2022-11-03T05:15:23.351Z,5.03
2022-11-03T05:20:49.627Z,6.43
2022-11-03T05:25:54.338Z,6.32
2022-11-03T05:30:57.516Z,5.25
2022-11-03T05:36:08.301Z,7.13
2022-11-03T05:41:21.048Z,8.50
2022-11-03T05:46:24.288Z,16.75
2022-11-03T05:51:32.921Z,3.75
2022-11-03T05:56:35.280Z,2.10
2022-11-03T06:01:39.923Z,8.75
2022-11-03T06:06:41.902Z,7.22
2022-11-03T06:11:44.347Z,4.85
2022-11-03T06:16:59.923Z,1.52
2022-11-03T06:22:28.036Z,2.65
2022-11-03T06:27:32.224Z,8.40
2022-11-03T06:32:34.211Z,3.15
2022-11-03T06:37:36.337Z,4.78
2022-11-03T06:42:41.453Z,3.33
2022-11-03T06:47:43.311Z,1.98
2022-11-03T06:58:08.074Z,8.27
2022-11-03T07:03:39.049Z,11.10
2022-11-03T07:08:47.013Z,6.40
2022-11-03T07:13:52.309Z,7.40
2022-11-03T07:18:54.195Z,8.40
2022-11-03T07:24:00.092Z,7.25
2022-11-03T07:29:02.895Z,4.68
2022-11-03T07:34:11.169Z,9.70
2022-11-03T07:39:19.761Z,6.95
2022-11-03T07:44:21.925Z,7.85
2022-11-03T07:49:28.712Z,8.20
2022-11-03T07:54:33.784Z,4.78
2022-11-03T07:59:39.226Z,6.20
2022-11-03T08:04:41.000Z,7.93
2022-11-03T08:09:42.871Z,8.23
2022-11-03T08:14:44.687Z,5.07
2022-11-03T08:19:46.685Z,8.77
2022-11-03T08:24:48.691Z,10.88
2022-11-03T08:29:50.713Z,1.48
2022-11-03T08:34:52.990Z,3.47
2022-11-03T08:39:54.942Z,1.63
2022-11-03T08:44:56.861Z,4.50
2022-11-03T08:50:00.192Z,3.78
2022-11-03T08:55:02.152Z,3.88
2022-11-03T09:00:06.298Z,4.78
2022-11-03T09:05:08.882Z,2.55
2022-11-03T09:10:20.157Z,3.08
2022-11-03T09:15:24.366Z,4.75
2022-11-03T09:20:26.813Z,5.43
2022-11-03T09:25:28.745Z,1.77
2022-11-03T09:30:30.873Z,4.20
2022-11-03T09:35:32.763Z,4.60
2022-11-03T09:40:35.977Z,1.13
2022-11-03T09:45:39.297Z,1.00
2022-11-03T09:50:41.511Z,1.48
2022-11-03T09:55:43.577Z,1.02
2022-11-03T10:00:46.278Z,2.22
2022-11-03T10:05:48.542Z,1.85
2022-11-03T10:10:51.630Z,2.10
2022-11-03T10:15:53.765Z,2.72
2022-11-03T10:20:56.696Z,3.15
2022-11-03T10:26:25.007Z,3.70
2022-11-03T10:31:41.022Z,2.60
2022-11-03T10:36:48.048Z,3.78
2022-11-03T10:41:58.757Z,4.57
2022-11-03T10:47:02.929Z,1.73
2022-11-03T10:52:22.682Z,1.80
2022-11-03T10:57:25.578Z,2.60
2022-11-03T11:02:32.289Z,1.52
2022-11-03T11:07:41.987Z,3.22
2022-11-03T11:13:19.355Z,3.47
2022-11-03T11:18:30.224Z,1.05
2022-11-03T11:23:35.342Z,5.38
2022-11-03T11:28:44.922Z,1.48
2022-11-03T11:33:46.833Z,2.88
2022-11-03T11:38:48.690Z,10.82
2022-11-03T11:43:50.748Z,5.03
2022-11-03T11:49:16.806Z,3.00
2022-11-03T11:54:21.167Z,1.77
2022-11-03T11:59:25.576Z,6.57
2022-11-03T12:04:31.682Z,7.43
2022-11-03T12:09:33.994Z,5.50
2022-11-03T12:14:38.287Z,8.38
2022-11-03T12:19:48.919Z,2.15
2022-11-03T12:24:54.916Z,2.22
2022-11-03T12:30:02.397Z,4.85
2022-11-03T12:35:08.341Z,2.47
2022-11-03T12:40:13.754Z,3.92
2022-11-03T12:45:15.646Z,1.50
2022-11-03T12:50:17.515Z,4.35
2022-11-03T12:55:19.588Z,2.75
2022-11-03T13:00:21.534Z,5.22
2022-11-03T13:05:23.548Z,2.20
2022-11-03T13:10:25.408Z,3.97
2022-11-03T13:15:27.287Z,2.50
2022-11-03T13:20:29.084Z,4.28
2022-11-03T13:25:31.947Z,3.65
2022-11-03T13:30:34.041Z,4.15
2022-11-03T13:35:35.921Z,9.75
2022-11-03T13:46:02.676Z,5.30
2022-11-03T13:51:05.075Z,4.82
2022-11-03T13:56:08.904Z,2.90
2022-11-03T14:01:12.453Z,5.40
2022-11-03T14:06:14.479Z,5.05
2022-11-03T14:11:34.766Z,5.90
2022-11-03T14:16:36.683Z,5.78
2022-11-03T14:21:41.046Z,3.58
2022-11-03T14:26:43.507Z,9.18
2022-11-03T14:31:45.826Z,5.25
2022-11-03T14:36:48.108Z,7.10
2022-11-03T14:42:05.630Z,9.75
2022-11-03T14:47:10.690Z,5.43
2022-11-03T14:52:13.392Z,4.40
2022-11-03T14:57:15.383Z,9.85
2022-11-03T15:02:17.514Z,6.70
2022-11-03T15:07:19.425Z,8.25
2022-11-03T15:12:21.164Z,10.52
2022-11-03T15:17:22.944Z,6.53
2022-11-03T15:27:46.754Z,12.80
2022-11-03T15:32:48.769Z,7.63
2022-11-03T15:37:50.817Z,11.65
2022-11-03T15:42:52.793Z,12.35
2022-11-03T15:47:58.281Z,6.82
2022-11-03T15:53:00.465Z,10.55
2022-11-03T15:58:02.522Z,10.95
2022-11-03T16:03:04.607Z,10.30
2022-11-03T16:08:06.848Z,9.30
2022-11-03T16:13:09.111Z,13.65
2022-11-03T16:18:12.213Z,11.60
2022-11-03T16:23:14.084Z,7.55
2022-11-03T16:28:15.889Z,8.35
2022-11-03T16:33:17.764Z,9.55
2022-11-03T16:38:19.669Z,9.80
2022-11-03T16:43:21.502Z,10.77
2022-11-03T16:48:23.373Z,10.40
2022-11-03T16:53:25.428Z,10.98
2022-11-03T16:58:27.387Z,10.32
2022-11-03T17:03:29.361Z,8.77
2022-11-03T17:08:51.848Z,11.25
2022-11-03T17:13:53.530Z,20.13
2022-11-03T17:18:55.564Z,10.90
2022-11-03T17:23:59.886Z,9.77
2022-11-03T17:29:01.930Z,15.65
2022-11-03T17:34:03.974Z,14.55
2022-11-03T17:39:06.229Z,16.17
2022-11-03T17:44:18.622Z,10.48
2022-11-03T17:49:20.629Z,8.43
2022-11-03T17:54:24.358Z,11.13
2022-11-03T17:59:27.739Z,12.68
2022-11-03T18:04:29.654Z,17.25
2022-11-03T18:09:31.504Z,10.32
2022-11-03T18:14:33.377Z,11.95
2022-11-03T18:19:35.320Z,10.43
2022-11-03T18:24:37.242Z,8.65
2022-11-03T18:29:39.286Z,11.30
2022-11-03T18:34:42.067Z,11.60
2022-11-03T18:39:43.943Z,13.95
2022-11-03T18:44:46.648Z,14.15
2022-11-03T18:49:49.216Z,10.10
2022-11-03T18:54:52.416Z,13.45
2022-11-03T18:59:54.535Z,9.43
2022-11-03T19:04:56.553Z,11.00
2022-11-03T19:09:58.799Z,16.58
2022-11-03T19:15:00.822Z,11.32
2022-11-03T19:20:14.095Z,19.60
2022-11-03T19:25:16.603Z,13.13
2022-11-03T19:30:20.208Z,9.60
2022-11-03T19:35:35.453Z,13.35
2022-11-03T19:40:59.984Z,23.55
2022-11-03T19:46:03.137Z,13.65
2022-11-03T19:51:06.421Z,13.55
2022-11-03T19:56:09.959Z,12.20
2022-11-03T20:01:11.915Z,15.27
2022-11-03T20:06:18.220Z,19.63
2022-11-03T20:11:22.102Z,24.60
2022-11-03T20:16:24.689Z,14.85
2022-11-03T20:21:32.994Z,18.50
2022-11-03T20:26:36.676Z,17.08
2022-11-03T20:31:38.819Z,20.52
2022-11-03T20:36:42.003Z,19.98
2022-11-03T20:41:54.496Z,21.25
2022-11-03T20:46:56.445Z,14.82
2022-11-03T20:51:58.618Z,12.10
2022-11-03T20:57:00.463Z,21.70
2022-11-03T21:02:02.587Z,16.92
2022-11-03T21:07:05.579Z,12.57
2022-11-03T21:12:12.081Z,16.67
2022-11-03T21:17:32.902Z,13.15
2022-11-03T21:22:54.059Z,13.40
2022-11-03T21:27:59.586Z,16.80
2022-11-03T21:33:01.459Z,15.38
2022-11-03T21:38:03.503Z,20.30
2022-11-03T21:43:23.937Z,19.13
2022-11-03T21:48:44.267Z,17.02
2022-11-03T21:53:47.061Z,18.63
2022-11-03T21:58:48.827Z,13.63
2022-11-03T22:03:50.562Z,14.27
2022-11-03T22:08:52.900Z,17.05
2022-11-03T22:14:00.017Z,16.98
2022-11-03T22:19:20.382Z,19.40
2022-11-03T22:24:40.742Z,14.40
2022-11-03T22:30:01.066Z,15.30
2022-11-03T22:35:22.816Z,13.98
2022-11-03T22:40:43.097Z,16.42
2022-11-03T22:45:51.256Z,13.10
2022-11-03T22:51:06.609Z,18.58
2022-11-03T22:56:09.086Z,15.48
2022-11-03T23:01:19.079Z,17.17
2022-11-03T23:06:26.489Z,11.15
2022-11-03T23:11:32.763Z,11.52
2022-11-03T23:16:40.655Z,15.75
2022-11-03T23:26:47.323Z,13.30
2022-11-03T23:31:49.142Z,13.98
2022-11-03T23:36:51.388Z,15.48
2022-11-03T23:41:53.131Z,12.00
2022-11-03T23:47:13.429Z,15.95
2022-11-03T23:52:15.143Z,17.73
2022-11-03T23:57:35.479Z,15.25
